sensor_id;sensor_type;location;lat;lon;timestamp;pressure;altitude;pressure_sealevel;temperature;humidity
39051;BME280;24805;55.852;37.644;2023-07-16T00:02:57;99082.38;;;17.29;67.16
39051;BME280;24805;55.852;37.644;2023-07-16T00:07:59;99090.78;;;17.32;67.21
39051;BME280;24805;55.852;37.644;2023-07-16T00:13:02;99087.41;;;17.37;67.30
39051;BME280;24805;55.852;37.644;2023-07-16T00:18:04;99102.56;;;17.43;67.11
39051;BME280;24805;55.852;37.644;2023-07-16T00:23:07;99098.59;;;17.45;67.28
39051;BME280;24805;55.852;37.644;2023-07-16T00:28:10;99103.75;;;17.47;66.98
39051;BME280;24805;55.852;37.644;2023-07-16T00:33:13;99105.00;;;17.44;66.46
39051;BME280;24805;55.852;37.644;2023-07-16T00:38:19;99108.41;;;17.51;67.04
39051;BME280;24805;55.852;37.644;2023-07-16T00:43:21;99095.69;;;17.35;67.15
39051;BME280;24805;55.852;37.644;2023-07-16T00:48:24;99102.09;;;17.34;67.16
39051;BME280;24805;55.852;37.644;2023-07-16T00:53:27;99101.28;;;17.34;66.91
39051;BME280;24805;55.852;37.644;2023-07-16T00:58:29;99099.19;;;17.36;67.01
39051;BME280;24805;55.852;37.644;2023-07-16T01:03:31;99105.69;;;17.40;66.77
39051;BME280;24805;55.852;37.644;2023-07-16T01:08:45;99103.41;;;17.55;66.94
39051;BME280;24805;55.852;37.644;2023-07-16T01:13:48;99108.66;;;17.50;66.60
39051;BME280;24805;55.852;37.644;2023-07-16T01:18:51;99116.59;;;17.56;66.64
39051;BME280;24805;55.852;37.644;2023-07-16T01:24:11;99113.91;;;17.80;66.34
39051;BME280;24805;55.852;37.644;2023-07-16T01:34:33;99126.28;;;17.69;66.08
39051;BME280;24805;55.852;37.644;2023-07-16T01:39:36;99136.22;;;17.69;66.03
39051;BME280;24805;55.852;37.644;2023-07-16T01:44:39;99133.88;;;17.72;66.34
39051;BME280;24805;55.852;37.644;2023-07-16T01:49:41;99144.97;;;17.76;66.05
39051;BME280;24805;55.852;37.644;2023-07-16T01:54:44;99141.00;;;17.78;65.91
39051;BME280;24805;55.852;37.644;2023-07-16T01:59:46;99146.47;;;17.83;66.02
39051;BME280;24805;55.852;37.644;2023-07-16T02:04:48;99134.22;;;17.87;65.69
39051;BME280;24805;55.852;37.644;2023-07-16T02:09:52;99136.78;;;17.94;65.72
39051;BME280;24805;55.852;37.644;2023-07-16T02:14:55;99143.56;;;17.97;65.23
39051;BME280;24805;55.852;37.644;2023-07-16T02:19:57;99153.94;;;18.05;65.57
39051;BME280;24805;55.852;37.644;2023-07-16T02:24:59;99155.00;;;18.15;65.38
39051;BME280;24805;55.852;37.644;2023-07-16T02:30:01;99154.13;;;18.27;64.88
39051;BME280;24805;55.852;37.644;2023-07-16T02:35:05;99158.94;;;18.36;64.71
39051;BME280;24805;55.852;37.644;2023-07-16T02:40:08;99162.63;;;18.47;64.42
39051;BME280;24805;55.852;37.644;2023-07-16T02:45:10;99159.22;;;18.51;64.10
39051;BME280;24805;55.852;37.644;2023-07-16T02:50:12;99160.16;;;18.57;63.95
39051;BME280;24805;55.852;37.644;2023-07-16T02:55:15;99165.41;;;18.64;63.61
39051;BME280;24805;55.852;37.644;2023-07-16T03:00:17;99172.06;;;18.73;63.46
39051;BME280;24805;55.852;37.644;2023-07-16T03:05:19;99175.41;;;18.80;63.32
39051;BME280;24805;55.852;37.644;2023-07-16T03:10:22;99181.31;;;18.93;62.87
39051;BME280;24805;55.852;37.644;2023-07-16T03:15:24;99183.63;;;19.02;62.28
39051;BME280;24805;55.852;37.644;2023-07-16T03:20:26;99179.03;;;19.14;62.33
39051;BME280;24805;55.852;37.644;2023-07-16T03:25:29;99182.13;;;19.22;62.04
39051;BME280;24805;55.852;37.644;2023-07-16T03:30:32;99178.91;;;19.37;61.75
39051;BME280;24805;55.852;37.644;2023-07-16T03:35:35;99180.34;;;19.45;61.29
39051;BME280;24805;55.852;37.644;2023-07-16T03:40:37;99186.44;;;19.52;60.98
39051;BME280;24805;55.852;37.644;2023-07-16T03:45:41;99190.75;;;19.53;61.02
39051;BME280;24805;55.852;37.644;2023-07-16T03:50:43;99195.47;;;19.63;60.63
39051;BME280;24805;55.852;37.644;2023-07-16T03:55:46;99203.66;;;19.68;60.73
39051;BME280;24805;55.852;37.644;2023-07-16T04:00:49;99203.81;;;19.78;60.33
39051;BME280;24805;55.852;37.644;2023-07-16T04:05:51;99206.34;;;19.84;60.06
39051;BME280;24805;55.852;37.644;2023-07-16T04:10:54;99212.13;;;19.93;60.13
39051;BME280;24805;55.852;37.644;2023-07-16T04:15:58;99216.53;;;19.99;59.83
39051;BME280;24805;55.852;37.644;2023-07-16T04:21:00;99216.47;;;19.94;59.81
39051;BME280;24805;55.852;37.644;2023-07-16T04:26:02;99213.59;;;19.84;60.44
39051;BME280;24805;55.852;37.644;2023-07-16T04:31:05;99215.47;;;19.83;60.61
39051;BME280;24805;55.852;37.644;2023-07-16T04:36:07;99221.34;;;19.80;60.66
39051;BME280;24805;55.852;37.644;2023-07-16T04:41:09;99221.59;;;19.79;60.66
39051;BME280;24805;55.852;37.644;2023-07-16T04:46:11;99196.16;;;19.70;60.61
39051;BME280;24805;55.852;37.644;2023-07-16T04:51:14;99221.66;;;19.84;60.53
39051;BME280;24805;55.852;37.644;2023-07-16T04:56:16;99219.31;;;19.87;60.57
39051;BME280;24805;55.852;37.644;2023-07-16T05:01:19;99218.00;;;19.90;60.30
39051;BME280;24805;55.852;37.644;2023-07-16T05:06:22;99203.97;;;19.88;60.17
39051;BME280;24805;55.852;37.644;2023-07-16T05:11:24;99217.19;;;20.06;60.30
39051;BME280;24805;55.852;37.644;2023-07-16T05:16:28;99214.13;;;20.19;59.63
39051;BME280;24805;55.852;37.644;2023-07-16T05:21:30;99222.94;;;20.32;59.28
39051;BME280;24805;55.852;37.644;2023-07-16T05:26:32;99226.56;;;20.37;59.11
39051;BME280;24805;55.852;37.644;2023-07-16T05:31:35;99231.91;;;20.54;58.91
39051;BME280;24805;55.852;37.644;2023-07-16T05:36:37;99225.22;;;20.78;58.34
39051;BME280;24805;55.852;37.644;2023-07-16T05:41:40;99229.16;;;21.19;57.50
39051;BME280;24805;55.852;37.644;2023-07-16T05:46:42;99232.66;;;21.69;56.28
39051;BME280;24805;55.852;37.644;2023-07-16T05:51:45;99227.53;;;22.36;54.49
39051;BME280;24805;55.852;37.644;2023-07-16T05:56:47;99233.03;;;23.19;52.42
39051;BME280;24805;55.852;37.644;2023-07-16T06:01:49;99224.50;;;23.83;50.63
39051;BME280;24805;55.852;37.644;2023-07-16T06:06:51;99230.13;;;24.42;49.68
39051;BME280;24805;55.852;37.644;2023-07-16T06:11:54;99235.16;;;24.84;48.36
39051;BME280;24805;55.852;37.644;2023-07-16T06:16:56;99232.63;;;25.13;47.68
39051;BME280;24805;55.852;37.644;2023-07-16T06:21:58;99237.38;;;25.36;46.94
39051;BME280;24805;55.852;37.644;2023-07-16T06:27:00;99236.44;;;25.07;46.85
39051;BME280;24805;55.852;37.644;2023-07-16T06:32:03;99244.69;;;24.77;47.25
39051;BME280;24805;55.852;37.644;2023-07-16T06:37:05;99239.13;;;24.27;48.68
39051;BME280;24805;55.852;37.644;2023-07-16T06:42:08;99241.56;;;23.93;49.48
39051;BME280;24805;55.852;37.644;2023-07-16T06:47:10;99244.56;;;23.97;49.56
39051;BME280;24805;55.852;37.644;2023-07-16T06:52:20;99253.50;;;24.28;49.74
39051;BME280;24805;55.852;37.644;2023-07-16T06:57:23;99254.00;;;23.99;49.70
39051;BME280;24805;55.852;37.644;2023-07-16T07:02:25;99255.66;;;23.85;49.37
39051;BME280;24805;55.852;37.644;2023-07-16T07:07:28;99252.66;;;23.66;49.42
39051;BME280;24805;55.852;37.644;2023-07-16T07:12:30;99255.94;;;23.74;49.78
39051;BME280;24805;55.852;37.644;2023-07-16T07:17:39;99248.31;;;24.01;49.06
39051;BME280;24805;55.852;37.644;2023-07-16T07:22:41;99264.34;;;24.18;48.34
39051;BME280;24805;55.852;37.644;2023-07-16T07:27:44;99260.72;;;24.63;47.42
39051;BME280;24805;55.852;37.644;2023-07-16T07:32:49;99250.53;;;25.63;45.47
39051;BME280;24805;55.852;37.644;2023-07-16T07:37:51;99255.63;;;26.38;43.77
39051;BME280;24805;55.852;37.644;2023-07-16T07:42:53;99250.09;;;26.48;43.48
39051;BME280;24805;55.852;37.644;2023-07-16T07:47:56;99250.31;;;26.23;43.39
39051;BME280;24805;55.852;37.644;2023-07-16T07:52:58;99259.06;;;25.86;44.13
39051;BME280;24805;55.852;37.644;2023-07-16T07:58:00;99255.16;;;25.63;44.80
39051;BME280;24805;55.852;37.644;2023-07-16T08:03:02;99262.81;;;25.51;45.27
39051;BME280;24805;55.852;37.644;2023-07-16T08:08:05;99270.06;;;25.16;45.77
39051;BME280;24805;55.852;37.644;2023-07-16T08:13:07;99269.13;;;24.77;47.31
39051;BME280;24805;55.852;37.644;2023-07-16T08:18:09;99262.09;;;24.65;47.08
39051;BME280;24805;55.852;37.644;2023-07-16T08:23:12;99254.75;;;24.71;47.49
39051;BME280;24805;55.852;37.644;2023-07-16T08:28:14;99264.25;;;24.68;47.04
39051;BME280;24805;55.852;37.644;2023-07-16T08:33:17;99260.38;;;24.90;46.84
39051;BME280;24805;55.852;37.644;2023-07-16T08:38:19;99255.72;;;25.55;45.66
39051;BME280;24805;55.852;37.644;2023-07-16T08:43:21;99251.13;;;26.23;44.15
39051;BME280;24805;55.852;37.644;2023-07-16T08:48:24;99251.81;;;28.37;41.12
39051;BME280;24805;55.852;37.644;2023-07-16T08:53:27;99254.44;;;31.72;34.23
39051;BME280;24805;55.852;37.644;2023-07-16T08:58:30;99232.16;;;35.79;28.17
39051;BME280;24805;55.852;37.644;2023-07-16T09:03:32;99227.56;;;38.44;24.42
39051;BME280;24805;55.852;37.644;2023-07-16T09:08:35;99229.84;;;39.71;22.36
39051;BME280;24805;55.852;37.644;2023-07-16T09:13:37;99225.84;;;41.59;20.34
39051;BME280;24805;55.852;37.644;2023-07-16T09:18:40;99228.06;;;42.72;19.29
39051;BME280;24805;55.852;37.644;2023-07-16T09:23:44;99221.72;;;43.91;17.77
39051;BME280;24805;55.852;37.644;2023-07-16T09:28:48;99228.97;;;43.78;17.61
39051;BME280;24805;55.852;37.644;2023-07-16T09:33:51;99216.00;;;43.28;17.79
39051;BME280;24805;55.852;37.644;2023-07-16T09:38:53;99203.28;;;43.03;17.62
39051;BME280;24805;55.852;37.644;2023-07-16T09:43:56;99222.09;;;41.26;18.36
39051;BME280;24805;55.852;37.644;2023-07-16T09:48:59;99232.84;;;39.58;20.28
39051;BME280;24805;55.852;37.644;2023-07-16T09:54:01;99230.38;;;40.61;19.37
39051;BME280;24805;55.852;37.644;2023-07-16T09:59:15;99225.63;;;42.78;18.64
39051;BME280;24805;55.852;37.644;2023-07-16T10:04:19;99214.19;;;43.77;16.70
39051;BME280;24805;55.852;37.644;2023-07-16T10:09:39;99205.69;;;45.36;15.80
39051;BME280;24805;55.852;37.644;2023-07-16T10:14:53;99228.06;;;42.65;17.04
39051;BME280;24805;55.852;37.644;2023-07-16T10:20:08;99219.59;;;41.97;17.57
39051;BME280;24805;55.852;37.644;2023-07-16T10:30:20;99210.66;;;44.32;15.45
39051;BME280;24805;55.852;37.644;2023-07-16T10:35:22;99207.72;;;42.57;16.44
39051;BME280;24805;55.852;37.644;2023-07-16T10:40:25;99211.22;;;41.87;17.08
39051;BME280;24805;55.852;37.644;2023-07-16T10:45:28;99210.50;;;42.15;16.30
39051;BME280;24805;55.852;37.644;2023-07-16T10:50:34;99214.34;;;39.40;19.36
39051;BME280;24805;55.852;37.644;2023-07-16T10:55:36;99228.97;;;39.97;19.27
39051;BME280;24805;55.852;37.644;2023-07-16T11:00:40;99202.56;;;42.70;16.39
39051;BME280;24805;55.852;37.644;2023-07-16T11:05:45;99218.84;;;43.14;16.46
39051;BME280;24805;55.852;37.644;2023-07-16T11:10:57;99217.69;;;42.41;17.51
39051;BME280;24805;55.852;37.644;2023-07-16T11:16:09;99207.19;;;43.37;16.38
39051;BME280;24805;55.852;37.644;2023-07-16T11:21:12;99177.16;;;43.70;15.27
39051;BME280;24805;55.852;37.644;2023-07-16T11:26:15;99184.25;;;43.81;15.25
39051;BME280;24805;55.852;37.644;2023-07-16T11:31:17;99179.16;;;40.66;17.20
39051;BME280;24805;55.852;37.644;2023-07-16T11:36:21;99192.94;;;40.48;17.90
39051;BME280;24805;55.852;37.644;2023-07-16T11:41:23;99189.53;;;41.38;16.88
39051;BME280;24805;55.852;37.644;2023-07-16T11:46:25;99205.34;;;42.31;16.40
39051;BME280;24805;55.852;37.644;2023-07-16T11:51:27;99190.19;;;43.90;15.16
39051;BME280;24805;55.852;37.644;2023-07-16T11:56:29;99204.47;;;43.23;15.19
39051;BME280;24805;55.852;37.644;2023-07-16T12:01:31;99202.16;;;42.50;15.74
39051;BME280;24805;55.852;37.644;2023-07-16T12:06:34;99206.94;;;42.75;15.42
39051;BME280;24805;55.852;37.644;2023-07-16T12:11:37;99205.63;;;40.97;16.33
39051;BME280;24805;55.852;37.644;2023-07-16T12:16:40;99194.00;;;39.28;18.34
39051;BME280;24805;55.852;37.644;2023-07-16T12:21:42;99190.75;;;38.93;18.40
39051;BME280;24805;55.852;37.644;2023-07-16T12:26:44;99197.41;;;37.55;19.45
39051;BME280;24805;55.852;37.644;2023-07-16T12:31:47;99190.03;;;36.89;20.97
39051;BME280;24805;55.852;37.644;2023-07-16T12:36:49;99185.97;;;37.56;20.03
39051;BME280;24805;55.852;37.644;2023-07-16T12:41:52;99197.81;;;38.18;18.95
39051;BME280;24805;55.852;37.644;2023-07-16T12:46:55;99195.84;;;38.65;19.39
39051;BME280;24805;55.852;37.644;2023-07-16T12:51:57;99192.66;;;38.89;19.39
39051;BME280;24805;55.852;37.644;2023-07-16T12:56:59;99188.56;;;39.36;19.68
39051;BME280;24805;55.852;37.644;2023-07-16T13:02:02;99197.44;;;39.18;18.55
39051;BME280;24805;55.852;37.644;2023-07-16T13:07:05;99197.72;;;38.57;18.78
39051;BME280;24805;55.852;37.644;2023-07-16T13:12:07;99192.06;;;37.85;20.34
39051;BME280;24805;55.852;37.644;2023-07-16T13:17:09;99184.19;;;36.75;21.70
39051;BME280;24805;55.852;37.644;2023-07-16T13:22:13;99198.34;;;35.02;22.85
39051;BME280;24805;55.852;37.644;2023-07-16T13:27:20;99203.22;;;34.23;23.13
39051;BME280;24805;55.852;37.644;2023-07-16T13:32:23;99201.94;;;33.97;23.67
39051;BME280;24805;55.852;37.644;2023-07-16T13:37:25;99209.19;;;33.60;24.01
39051;BME280;24805;55.852;37.644;2023-07-16T13:42:27;99187.28;;;33.09;24.47
39051;BME280;24805;55.852;37.644;2023-07-16T13:47:29;99196.00;;;32.82;25.21
39051;BME280;24805;55.852;37.644;2023-07-16T13:52:31;99198.19;;;32.30;26.22
39051;BME280;24805;55.852;37.644;2023-07-16T13:57:34;99194.59;;;31.48;27.74
39051;BME280;24805;55.852;37.644;2023-07-16T14:02:36;99204.16;;;30.37;28.85
39051;BME280;24805;55.852;37.644;2023-07-16T14:07:39;99197.94;;;29.69;30.11
39051;BME280;24805;55.852;37.644;2023-07-16T14:12:41;99202.84;;;29.23;31.38
39051;BME280;24805;55.852;37.644;2023-07-16T14:17:43;99197.78;;;29.30;31.57
39051;BME280;24805;55.852;37.644;2023-07-16T14:22:45;99190.16;;;29.63;30.80
39051;BME280;24805;55.852;37.644;2023-07-16T14:27:47;99195.25;;;29.78;30.50
39051;BME280;24805;55.852;37.644;2023-07-16T14:32:50;99187.50;;;29.94;30.93
39051;BME280;24805;55.852;37.644;2023-07-16T14:37:52;99191.78;;;29.86;30.82
39051;BME280;24805;55.852;37.644;2023-07-16T14:42:54;99188.75;;;29.43;30.90
39051;BME280;24805;55.852;37.644;2023-07-16T14:47:56;99193.69;;;29.05;31.96
39051;BME280;24805;55.852;37.644;2023-07-16T14:52:58;99204.41;;;29.01;31.31
39051;BME280;24805;55.852;37.644;2023-07-16T14:58:01;99201.88;;;29.05;31.96
39051;BME280;24805;55.852;37.644;2023-07-16T15:03:04;99192.41;;;28.89;31.87
39051;BME280;24805;55.852;37.644;2023-07-16T15:08:08;99201.28;;;28.39;32.55
39051;BME280;24805;55.852;37.644;2023-07-16T15:13:10;99197.75;;;27.93;33.99
39051;BME280;24805;55.852;37.644;2023-07-16T15:18:14;99204.13;;;27.51;35.21
39051;BME280;24805;55.852;37.644;2023-07-16T15:23:16;99211.50;;;27.13;34.62
39051;BME280;24805;55.852;37.644;2023-07-16T15:28:18;99214.06;;;26.80;34.73
39051;BME280;24805;55.852;37.644;2023-07-16T15:33:21;99218.72;;;26.56;35.63
39051;BME280;24805;55.852;37.644;2023-07-16T15:38:23;99212.63;;;26.40;36.83
39051;BME280;24805;55.852;37.644;2023-07-16T15:43:26;99214.50;;;26.16;36.71
39051;BME280;24805;55.852;37.644;2023-07-16T15:48:28;99214.91;;;25.99;37.31
39051;BME280;24805;55.852;37.644;2023-07-16T15:53:31;99224.25;;;25.88;37.46
39051;BME280;24805;55.852;37.644;2023-07-16T15:58:33;99212.72;;;25.72;37.77
39051;BME280;24805;55.852;37.644;2023-07-16T16:03:35;99224.72;;;25.66;38.21
39051;BME280;24805;55.852;37.644;2023-07-16T16:08:38;99220.13;;;25.56;38.09
39051;BME280;24805;55.852;37.644;2023-07-16T16:13:40;99213.97;;;25.46;38.26
39051;BME280;24805;55.852;37.644;2023-07-16T16:18:42;99227.91;;;25.34;39.18
39051;BME280;24805;55.852;37.644;2023-07-16T16:23:44;99220.88;;;25.28;39.23
39051;BME280;24805;55.852;37.644;2023-07-16T16:28:46;99229.03;;;25.23;39.60
39051;BME280;24805;55.852;37.644;2023-07-16T16:33:49;99236.69;;;25.16;40.08
39051;BME280;24805;55.852;37.644;2023-07-16T16:38:51;99235.38;;;25.03;40.43
39051;BME280;24805;55.852;37.644;2023-07-16T16:43:54;99244.09;;;24.90;40.76
39051;BME280;24805;55.852;37.644;2023-07-16T16:48:56;99246.88;;;24.75;41.33
39051;BME280;24805;55.852;37.644;2023-07-16T16:53:59;99236.91;;;24.55;41.55
39051;BME280;24805;55.852;37.644;2023-07-16T16:59:01;99246.44;;;24.32;42.09
39051;BME280;24805;55.852;37.644;2023-07-16T17:04:04;99241.56;;;24.14;42.62
39051;BME280;24805;55.852;37.644;2023-07-16T17:09:07;99245.63;;;23.96;43.31
39051;BME280;24805;55.852;37.644;2023-07-16T17:14:09;99229.38;;;23.70;43.59
39051;BME280;24805;55.852;37.644;2023-07-16T17:19:11;99240.47;;;23.54;44.11
39051;BME280;24805;55.852;37.644;2023-07-16T17:24:13;99248.53;;;23.44;44.62
39051;BME280;24805;55.852;37.644;2023-07-16T17:29:15;99244.44;;;23.26;45.02
39051;BME280;24805;55.852;37.644;2023-07-16T17:34:18;99259.81;;;23.10;45.23
39051;BME280;24805;55.852;37.644;2023-07-16T17:39:20;99259.22;;;22.93;45.54
39051;BME280;24805;55.852;37.644;2023-07-16T17:44:22;99266.16;;;22.79;45.95
39051;BME280;24805;55.852;37.644;2023-07-16T17:49:24;99272.78;;;22.61;46.14
39051;BME280;24805;55.852;37.644;2023-07-16T17:54:27;99288.72;;;22.52;46.45
39051;BME280;24805;55.852;37.644;2023-07-16T17:59:29;99284.31;;;22.41;47.00
39051;BME280;24805;55.852;37.644;2023-07-16T18:04:32;99262.81;;;22.19;47.49
39051;BME280;24805;55.852;37.644;2023-07-16T18:09:34;99287.41;;;22.18;47.68
39051;BME280;24805;55.852;37.644;2023-07-16T18:14:37;99278.91;;;22.04;48.05
39051;BME280;24805;55.852;37.644;2023-07-16T18:19:39;99283.84;;;21.85;48.95
39051;BME280;24805;55.852;37.644;2023-07-16T18:24:42;99285.66;;;21.75;49.38
39051;BME280;24805;55.852;37.644;2023-07-16T18:29:44;99286.34;;;21.65;49.39
39051;BME280;24805;55.852;37.644;2023-07-16T18:34:46;99291.66;;;21.55;50.04
39051;BME280;24805;55.852;37.644;2023-07-16T18:39:53;99286.72;;;21.47;49.95
39051;BME280;24805;55.852;37.644;2023-07-16T18:44:55;99280.16;;;21.38;50.81
39051;BME280;24805;55.852;37.644;2023-07-16T18:50:06;99267.22;;;21.18;50.95
39051;BME280;24805;55.852;37.644;2023-07-16T18:55:11;99287.69;;;21.19;51.35
39051;BME280;24805;55.852;37.644;2023-07-16T19:00:13;99282.78;;;21.11;51.70
39051;BME280;24805;55.852;37.644;2023-07-16T19:05:18;99291.84;;;21.05;52.25
39051;BME280;24805;55.852;37.644;2023-07-16T19:10:20;99287.75;;;20.97;52.46
39051;BME280;24805;55.852;37.644;2023-07-16T19:15:23;99287.34;;;20.88;52.87
39051;BME280;24805;55.852;37.644;2023-07-16T19:20:25;99288.66;;;20.86;53.06
39051;BME280;24805;55.852;37.644;2023-07-16T19:25:29;99284.25;;;20.80;53.04
39051;BME280;24805;55.852;37.644;2023-07-16T19:30:32;99293.69;;;20.77;52.94
39051;BME280;24805;55.852;37.644;2023-07-16T19:35:34;99285.28;;;20.74;53.48
39051;BME280;24805;55.852;37.644;2023-07-16T19:40:37;99282.25;;;20.70;53.57
39051;BME280;24805;55.852;37.644;2023-07-16T19:45:43;99284.31;;;20.63;53.42
39051;BME280;24805;55.852;37.644;2023-07-16T19:50:46;99278.03;;;20.57;53.97
39051;BME280;24805;55.852;37.644;2023-07-16T19:55:50;99289.81;;;20.51;54.32
39051;BME280;24805;55.852;37.644;2023-07-16T20:00:52;99288.66;;;20.47;54.28
39051;BME280;24805;55.852;37.644;2023-07-16T20:05:54;99273.72;;;20.40;54.65
39051;BME280;24805;55.852;37.644;2023-07-16T20:10:57;99274.63;;;20.28;54.90
39051;BME280;24805;55.852;37.644;2023-07-16T20:15:59;99294.63;;;20.33;55.03
39051;BME280;24805;55.852;37.644;2023-07-16T20:21:01;99287.50;;;20.26;55.28
39051;BME280;24805;55.852;37.644;2023-07-16T20:26:03;99284.16;;;20.19;55.30
39051;BME280;24805;55.852;37.644;2023-07-16T20:31:06;99289.25;;;20.16;55.26
39051;BME280;24805;55.852;37.644;2023-07-16T20:36:08;99267.19;;;20.02;55.53
39051;BME280;24805;55.852;37.644;2023-07-16T20:41:10;99285.66;;;20.10;56.00
39051;BME280;24805;55.852;37.644;2023-07-16T20:46:12;99289.06;;;20.06;55.88
39051;BME280;24805;55.852;37.644;2023-07-16T20:51:16;99283.59;;;20.01;56.06
39051;BME280;24805;55.852;37.644;2023-07-16T20:56:18;99292.19;;;19.98;56.40
39051;BME280;24805;55.852;37.644;2023-07-16T21:01:21;99288.09;;;19.95;56.42
39051;BME280;24805;55.852;37.644;2023-07-16T21:06:23;99293.38;;;19.90;56.45
39051;BME280;24805;55.852;37.644;2023-07-16T21:11:25;99292.22;;;19.86;56.85
39051;BME280;24805;55.852;37.644;2023-07-16T21:16:27;99301.84;;;19.82;57.29
39051;BME280;24805;55.852;37.644;2023-07-16T21:21:29;99289.16;;;19.77;57.04
39051;BME280;24805;55.852;37.644;2023-07-16T21:26:31;99293.13;;;19.75;57.31
39051;BME280;24805;55.852;37.644;2023-07-16T21:31:34;99300.97;;;19.76;57.29
39051;BME280;24805;55.852;37.644;2023-07-16T21:36:36;99295.25;;;19.73;57.25
39051;BME280;24805;55.852;37.644;2023-07-16T21:41:38;99303.69;;;19.65;57.97
39051;BME280;24805;55.852;37.644;2023-07-16T21:46:40;99295.53;;;19.59;57.89
39051;BME280;24805;55.852;37.644;2023-07-16T21:51:42;99296.75;;;19.52;57.96
39051;BME280;24805;55.852;37.644;2023-07-16T21:56:46;99297.44;;;19.47;58.25
39051;BME280;24805;55.852;37.644;2023-07-16T22:01:48;99301.66;;;19.43;58.33
39051;BME280;24805;55.852;37.644;2023-07-16T22:06:50;99292.94;;;19.36;58.60
39051;BME280;24805;55.852;37.644;2023-07-16T22:11:52;99299.38;;;19.35;59.14
39051;BME280;24805;55.852;37.644;2023-07-16T22:16:55;99299.03;;;19.32;59.13
39051;BME280;24805;55.852;37.644;2023-07-16T22:21:57;99298.09;;;19.26;59.30
39051;BME280;24805;55.852;37.644;2023-07-16T22:26:59;99287.75;;;19.18;59.48
39051;BME280;24805;55.852;37.644;2023-07-16T22:32:01;99296.28;;;19.15;59.64
39051;BME280;24805;55.852;37.644;2023-07-16T22:37:04;99299.09;;;19.08;59.85
39051;BME280;24805;55.852;37.644;2023-07-16T22:42:08;99297.34;;;19.02;60.10
39051;BME280;24805;55.852;37.644;2023-07-16T22:47:10;99302.94;;;19.01;59.95
39051;BME280;24805;55.852;37.644;2023-07-16T22:52:12;99305.56;;;18.96;60.20
39051;BME280;24805;55.852;37.644;2023-07-16T22:57:14;99301.72;;;18.91;60.45
39051;BME280;24805;55.852;37.644;2023-07-16T23:02:17;99300.06;;;18.90;60.22
39051;BME280;24805;55.852;37.644;2023-07-16T23:07:19;99296.22;;;18.86;60.60
39051;BME280;24805;55.852;37.644;2023-07-16T23:12:22;99278.72;;;18.72;60.34
39051;BME280;24805;55.852;37.644;2023-07-16T23:17:24;99294.16;;;18.77;60.63
39051;BME280;24805;55.852;37.644;2023-07-16T23:22:27;99299.53;;;18.77;60.52
39051;BME280;24805;55.852;37.644;2023-07-16T23:27:29;99306.41;;;18.73;60.54
39051;BME280;24805;55.852;37.644;2023-07-16T23:32:31;99291.53;;;18.58;60.59
39051;BME280;24805;55.852;37.644;2023-07-16T23:37:33;99309.78;;;18.68;60.85
39051;BME280;24805;55.852;37.644;2023-07-16T23:42:35;99308.97;;;18.68;60.60
39051;BME280;24805;55.852;37.644;2023-07-16T23:47:37;99304.06;;;18.65;60.60
39051;BME280;24805;55.852;37.644;2023-07-16T23:52:39;99310.97;;;18.61;60.81
39051;BME280;24805;55.852;37.644;2023-07-16T23:57:42;99318.06;;;18.55;60.90
